Time;durP1;ratioP1;P1;durP2;ratioP2;P2;SDS_P1;SDS_P2;PMS_P1;PMS_P2;Temp;Humidity;BMP_temperature;BMP_pressure;BME280_temperature;BME280_humidity;BME280_pressure;Samples;Min_cycle;Max_cycle;Signal;HPM_P1;HPM_P2
2022/09/13 00:00:40;;;;;;;24.70;19.95;;;17.20;99.90;;;;;;5051375;28;20049;-69
2022/09/13 00:03:06;;;;;;;30.15;21.42;;;17.20;99.90;;;;;;5049558;28;20103;-69
2022/09/13 00:05:32;;;;;;;26.48;20.80;;;17.20;99.90;;;;;;5049393;28;20045;-69
2022/09/13 00:07:58;;;;;;;35.85;24.98;;;17.20;99.90;;;;;;5031306;28;20094;-69
2022/09/13 00:10:25;;;;;;;27.88;21.73;;;17.10;99.90;;;;;;5045487;28;20041;-69
2022/09/13 00:12:50;;;;;;;31.33;22.42;;;17.10;99.90;;;;;;5053903;28;20400;-69
2022/09/13 00:15:17;;;;;;;30.55;23.08;;;17.10;99.90;;;;;;5070248;28;20041;-69
2022/09/13 00:17:43;;;;;;;35.47;24.70;;;17.10;99.90;;;;;;5056463;28;20041;-69
2022/09/13 00:20:08;;;;;;;33.97;24.48;;;17.10;99.90;;;;;;5070044;28;20037;-69
2022/09/13 00:22:35;;;;;;;37.85;24.60;;;17.10;99.90;;;;;;5069962;28;20114;-69
2022/09/13 00:25:02;;;;;;;36.33;25.88;;;17.10;99.90;;;;;;5070340;28;20063;-69
2022/09/13 00:27:28;;;;;;;37.75;25.95;;;17.10;99.90;;;;;;5051443;28;20059;-68
2022/09/13 00:29:54;;;;;;;38.67;26.77;;;17.10;99.90;;;;;;5069926;28;20514;-68
2022/09/13 00:32:19;;;;;;;36.42;25.92;;;17.00;99.90;;;;;;5070803;28;20060;-69
2022/09/13 00:34:45;;;;;;;38.95;26.17;;;17.00;99.90;;;;;;5067143;28;20052;-68
2022/09/13 00:37:10;;;;;;;46.13;29.17;;;17.00;99.90;;;;;;5052157;28;20276;-68
2022/09/13 00:39:36;;;;;;;41.92;26.55;;;17.00;99.90;;;;;;5069997;28;20055;-68
2022/09/13 00:42:02;;;;;;;37.90;24.33;;;17.00;99.90;;;;;;5068981;28;20055;-68
2022/09/13 00:44:51;;;;;;;37.50;25.67;;;16.90;99.90;;;;;;5067237;28;20070;-69
2022/09/13 00:47:23;;;;;;;33.28;21.70;;;16.90;99.90;;;;;;5052066;28;20351;-68
2022/09/13 00:49:55;;;;;;;31.90;22.08;;;16.80;99.90;;;;;;5070037;28;20506;-69
2022/09/13 00:52:24;;;;;;;36.05;20.98;;;16.80;99.90;;;;;;5069615;28;20037;-68
2022/09/13 00:55:01;;;;;;;34.75;21.55;;;16.80;99.90;;;;;;5067610;28;20082;-69
2022/09/13 00:57:28;;;;;;;33.15;20.83;;;16.80;99.90;;;;;;5052833;28;20036;-68
2022/09/13 01:00:11;;;;;;;36.58;23.80;;;16.80;99.90;;;;;;5069142;28;20040;-68
2022/09/13 01:02:40;;;;;;;35.53;23.58;;;16.80;99.90;;;;;;5066311;28;20091;-68
2022/09/13 01:05:07;;;;;;;37.42;23.85;;;16.80;99.90;;;;;;5069494;28;20071;-69
2022/09/13 01:07:33;;;;;;;41.63;26.42;;;16.80;99.90;;;;;;5050243;28;20048;-68
2022/09/13 01:10:01;;;;;;;46.08;27.83;;;16.80;99.90;;;;;;5050962;28;20552;-68
2022/09/13 01:12:44;;;;;;;44.65;28.60;;;16.80;99.90;;;;;;5062491;28;20045;-68
2022/09/13 01:15:10;;;;;;;43.05;28.92;;;16.80;99.90;;;;;;5067869;28;20044;-69
2022/09/13 01:17:38;;;;;;;41.95;28.85;;;16.90;99.90;;;;;;5052021;28;20036;-68
2022/09/13 01:20:06;;;;;;;42.03;29.25;;;16.90;99.90;;;;;;5070368;28;20052;-69
2022/09/13 01:23:04;;;;;;;42.72;29.45;;;16.90;99.90;;;;;;5066876;28;20040;-69
2022/09/13 01:26:16;;;;;;;44.05;29.50;;;16.90;99.90;;;;;;5060346;28;20040;-69
2022/09/13 01:29:13;;;;;;;41.08;27.65;;;16.90;99.90;;;;;;5003001;28;20037;-68
2022/09/13 01:31:56;;;;;;;42.67;28.08;;;16.90;99.90;;;;;;5068260;28;20055;-69
2022/09/13 01:34:33;;;;;;;38.30;25.90;;;16.90;99.90;;;;;;5062323;28;20041;-69
2022/09/13 01:37:11;;;;;;;33.58;24.25;;;16.90;99.90;;;;;;5053432;28;20048;-69
2022/09/13 01:39:57;;;;;;;32.25;22.98;;;16.90;99.90;;;;;;5066065;28;20049;-69
2022/09/13 01:42:37;;;;;;;33.05;23.90;;;16.90;99.90;;;;;;5020905;28;20045;-68
2022/09/13 01:45:18;;;;;;;32.63;22.42;;;16.90;99.90;;;;;;5066468;28;20049;-69
2022/09/13 01:47:53;;;;;;;33.85;21.55;;;16.90;99.90;;;;;;5049498;28;20047;-68
2022/09/13 01:50:36;;;;;;;32.25;21.92;;;17.00;99.90;;;;;;5068550;28;20040;-69
2022/09/13 01:53:18;;;;;;;27.73;20.92;;;16.90;99.90;;;;;;5068232;28;20097;-69
2022/09/13 01:56:14;;;;;;;27.30;19.25;;;17.00;99.90;;;;;;5065209;28;20052;-69
2022/09/13 01:58:54;;;;;;;27.08;20.17;;;17.00;99.90;;;;;;5060793;28;20715;-68
2022/09/13 02:01:32;;;;;;;28.55;20.27;;;17.00;99.90;;;;;;5068666;28;20036;-69
2022/09/13 02:04:06;;;;;;;26.17;19.75;;;17.00;99.90;;;;;;5065358;28;20578;-69
2022/09/13 02:07:01;;;;;;;23.88;18.40;;;17.00;99.90;;;;;;5051680;28;20474;-70
2022/09/13 02:09:33;;;;;;;27.00;20.02;;;17.00;99.90;;;;;;5086043;28;20045;-69
2022/09/13 02:12:05;;;;;;;23.75;18.95;;;17.00;99.90;;;;;;5091766;28;20123;-69
2022/09/13 02:14:39;;;;;;;27.33;19.70;;;17.00;99.90;;;;;;5083390;28;20491;-69
2022/09/13 02:17:20;;;;;;;26.20;19.55;;;17.00;99.90;;;;;;5065366;28;20040;-68
2022/09/13 02:20:00;;;;;;;29.17;19.23;;;17.00;99.90;;;;;;5086179;28;20048;-69
2022/09/13 02:22:40;;;;;;;26.02;18.63;;;17.00;99.90;;;;;;5080467;28;20040;-69
2022/09/13 02:25:09;;;;;;;26.02;19.13;;;17.00;99.90;;;;;;5081387;28;20044;-69
2022/09/13 02:27:37;;;;;;;26.15;18.85;;;17.00;99.90;;;;;;5063559;28;20040;-69
2022/09/13 02:30:09;;;;;;;22.88;17.00;;;17.10;99.90;;;;;;5081639;28;20037;-70
2022/09/13 02:32:41;;;;;;;28.60;18.45;;;17.10;99.90;;;;;;5083057;28;20514;-69
2022/09/13 02:35:22;;;;;;;23.60;17.25;;;17.10;99.90;;;;;;5079055;28;20041;-69
2022/09/13 02:37:56;;;;;;;22.77;15.40;;;17.10;99.90;;;;;;5069904;28;20040;-69
2022/09/13 02:40:28;;;;;;;21.00;16.05;;;17.10;99.90;;;;;;5081514;28;20510;-70
2022/09/13 02:43:02;;;;;;;27.45;18.08;;;17.20;99.90;;;;;;5073752;28;20343;-69
2022/09/13 02:45:41;;;;;;;25.20;17.65;;;17.10;99.90;;;;;;5077451;28;20051;-70
2022/09/13 02:48:37;;;;;;;25.73;16.92;;;17.20;99.90;;;;;;5065789;28;20056;-69
2022/09/13 02:51:26;;;;;;;22.85;15.48;;;17.20;99.90;;;;;;5077582;28;20052;-69
2022/09/13 02:54:12;;;;;;;11.32;6.95;;;17.10;99.90;;;;;;5040811;28;20055;-68
2022/09/13 02:56:46;;;;;;;6.22;4.18;;;17.10;99.90;;;;;;5067689;28;20074;-68
2022/09/13 02:59:18;;;;;;;6.15;3.50;;;17.00;99.90;;;;;;5083219;28;20094;-68
2022/09/13 03:01:55;;;;;;;4.25;1.80;;;16.90;99.90;;;;;;5087914;28;20048;-68
2022/09/13 03:04:21;;;;;;;4.50;1.85;;;16.90;99.90;;;;;;5077367;28;20446;-67
2022/09/13 03:06:49;;;;;;;3.97;1.48;;;16.80;99.90;;;;;;5075261;28;20044;-68
2022/09/13 03:09:15;;;;;;;5.63;0.82;;;16.80;99.90;;;;;;5088265;28;20084;-68
2022/09/13 03:11:56;;;;;;;3.78;0.90;;;16.70;99.90;;;;;;5086203;28;20040;-68
2022/09/13 03:14:54;;;;;;;2.47;0.80;;;16.70;99.90;;;;;;5081893;28;20046;-68
2022/09/13 03:17:37;;;;;;;4.32;0.90;;;16.70;99.90;;;;;;5051893;28;20438;-68
2022/09/13 03:20:10;;;;;;;4.25;0.70;;;16.60;99.90;;;;;;5086979;28;20043;-68
2022/09/13 03:22:45;;;;;;;2.05;0.47;;;16.60;99.90;;;;;;5081638;28;20047;-68
2022/09/13 03:25:29;;;;;;;3.45;0.70;;;16.60;99.90;;;;;;5082309;28;20059;-68
2022/09/13 03:28:26;;;;;;;3.72;0.80;;;16.70;99.90;;;;;;5067309;28;20062;-68
2022/09/13 03:31:15;;;;;;;2.58;0.63;;;16.60;99.90;;;;;;5087400;28;20058;-68
2022/09/13 03:34:04;;;;;;;4.35;0.80;;;16.60;99.90;;;;;;5082545;28;20524;-68
2022/09/13 03:36:42;;;;;;;2.70;0.70;;;16.60;99.90;;;;;;5073889;28;20916;-68
2022/09/13 03:39:32;;;;;;;4.70;1.10;;;16.50;99.90;;;;;;5071245;28;20064;-68
2022/09/13 03:42:04;;;;;;;3.28;0.80;;;16.50;99.90;;;;;;5081499;28;20066;-68
2022/09/13 03:44:31;;;;;;;3.45;0.90;;;16.50;99.90;;;;;;5082996;28;20135;-68
2022/09/13 03:47:01;;;;;;;2.53;0.88;;;16.50;99.90;;;;;;5068052;28;20406;-68
2022/09/13 03:49:27;;;;;;;2.67;0.70;;;16.50;99.90;;;;;;5088021;28;20048;-68
2022/09/13 03:51:54;;;;;;;3.45;1.10;;;16.50;99.90;;;;;;5088433;28;20055;-68
2022/09/13 03:54:27;;;;;;;2.20;1.20;;;16.50;99.90;;;;;;5086992;28;20044;-68
2022/09/13 03:57:11;;;;;;;4.88;1.30;;;16.50;99.90;;;;;;5070103;28;20104;-68
2022/09/13 03:59:42;;;;;;;3.90;1.48;;;16.50;99.90;;;;;;5086641;28;20131;-68
2022/09/13 04:02:10;;;;;;;4.30;1.42;;;16.50;99.90;;;;;;5082053;28;20543;-68
2022/09/13 04:04:41;;;;;;;3.25;1.48;;;16.50;99.90;;;;;;5081499;28;20087;-68
2022/09/13 04:07:08;;;;;;;2.75;1.30;;;16.50;99.90;;;;;;5069420;28;20086;-68
2022/09/13 04:09:34;;;;;;;2.78;1.33;;;16.50;99.90;;;;;;5084557;28;20094;-68
2022/09/13 04:12:00;;;;;;;3.75;1.60;;;16.60;99.90;;;;;;5080635;28;20506;-68
2022/09/13 04:14:25;;;;;;;2.58;1.73;;;16.50;99.90;;;;;;5082423;28;20052;-68
2022/09/13 04:16:56;;;;;;;4.50;1.60;;;16.50;99.90;;;;;;5068621;28;20047;-68
2022/09/13 04:19:22;;;;;;;4.82;1.77;;;16.50;99.90;;;;;;5085943;28;20047;-68
2022/09/13 04:21:49;;;;;;;4.97;1.70;;;16.50;99.90;;;;;;5085443;28;20040;-68
2022/09/13 04:24:16;;;;;;;2.92;1.73;;;16.40;99.90;;;;;;5083929;28;20050;-69
2022/09/13 04:26:43;;;;;;;7.03;2.30;;;16.50;99.90;;;;;;5071231;28;20536;-68
2022/09/13 04:29:10;;;;;;;6.85;2.08;;;16.50;99.90;;;;;;5085445;28;20059;-68
2022/09/13 04:31:36;;;;;;;3.35;1.60;;;16.40;99.90;;;;;;5087054;28;20058;-68
2022/09/13 04:34:02;;;;;;;4.30;1.80;;;16.40;99.90;;;;;;5084599;28;20051;-68
2022/09/13 04:36:28;;;;;;;4.93;1.60;;;16.40;99.90;;;;;;5069652;28;20047;-68
2022/09/13 04:38:54;;;;;;;4.93;1.60;;;16.40;99.90;;;;;;5084146;28;20139;-68
2022/09/13 04:41:20;;;;;;;4.88;1.38;;;16.40;99.90;;;;;;5086034;28;20468;-68
2022/09/13 04:43:49;;;;;;;4.00;1.67;;;16.50;99.90;;;;;;5083448;28;20420;-68
2022/09/13 04:46:15;;;;;;;5.10;1.75;;;16.50;99.90;;;;;;5073178;28;20612;-69
2022/09/13 04:48:41;;;;;;;6.82;1.77;;;16.50;99.90;;;;;;5082080;28;20072;-69
2022/09/13 04:51:06;;;;;;;2.38;1.52;;;16.50;99.90;;;;;;5084421;28;20073;-68
2022/09/13 04:53:32;;;;;;;6.10;1.67;;;16.50;99.90;;;;;;5084840;28;20055;-69
2022/09/13 04:56:02;;;;;;;3.83;1.50;;;16.50;99.90;;;;;;5086265;28;20057;-68
2022/09/13 04:58:28;;;;;;;8.38;2.03;;;16.50;99.90;;;;;;5070517;28;20171;-68
2022/09/13 05:00:59;;;;;;;4.35;1.58;;;16.50;99.90;;;;;;5084319;28;20048;-69
2022/09/13 05:03:24;;;;;;;5.03;1.73;;;16.50;99.90;;;;;;5079452;28;20566;-68
2022/09/13 05:05:50;;;;;;;5.78;1.83;;;16.50;99.90;;;;;;5081611;28;20047;-69
2022/09/13 05:08:16;;;;;;;6.50;2.10;;;16.50;99.90;;;;;;5070456;28;20116;-68
2022/09/13 05:10:41;;;;;;;4.43;1.70;;;16.50;99.90;;;;;;5084530;28;20048;-68
2022/09/13 05:13:07;;;;;;;7.15;2.13;;;16.50;99.90;;;;;;5084052;28;20039;-68
2022/09/13 05:15:32;;;;;;;5.55;1.98;;;16.50;99.90;;;;;;5082976;28;20048;-68
2022/09/13 05:17:58;;;;;;;3.67;2.13;;;16.40;99.90;;;;;;5071185;28;20043;-68
2022/09/13 05:20:24;;;;;;;4.45;1.90;;;16.40;99.90;;;;;;5085973;28;20505;-68
2022/09/13 05:22:50;;;;;;;5.95;2.03;;;16.50;99.90;;;;;;5083745;28;20174;-68
2022/09/13 05:25:15;;;;;;;6.28;1.73;;;16.50;99.90;;;;;;5078660;28;20047;-68
2022/09/13 05:27:41;;;;;;;6.93;2.17;;;16.50;99.90;;;;;;5071223;28;20513;-69
2022/09/13 05:30:07;;;;;;;7.10;2.40;;;16.50;99.90;;;;;;5084561;28;20439;-68
2022/09/13 05:32:33;;;;;;;5.25;2.53;;;16.50;99.90;;;;;;5084803;28;20067;-69
2022/09/13 05:34:58;;;;;;;10.85;2.83;;;16.50;99.90;;;;;;5083951;28;20040;-68
2022/09/13 05:37:24;;;;;;;4.43;2.20;;;16.50;99.90;;;;;;5067543;28;20048;-69
2022/09/13 05:39:50;;;;;;;11.82;2.58;;;16.50;99.90;;;;;;5085049;28;20095;-68
2022/09/13 05:42:15;;;;;;;8.13;2.53;;;16.50;99.90;;;;;;5081273;28;20044;-68
2022/09/13 05:44:41;;;;;;;7.47;2.60;;;16.50;99.90;;;;;;5082558;28;20040;-69
2022/09/13 05:47:07;;;;;;;8.18;2.42;;;16.50;99.90;;;;;;5058209;28;20048;-68
2022/09/13 05:49:32;;;;;;;6.75;2.45;;;16.50;99.90;;;;;;5080164;28;20181;-70
2022/09/13 05:51:58;;;;;;;5.40;2.30;;;16.50;99.90;;;;;;5084196;28;20138;-69
2022/09/13 05:54:23;;;;;;;5.00;2.28;;;16.50;99.90;;;;;;5066066;28;20048;-69
2022/09/13 05:56:51;;;;;;;5.13;2.50;;;16.50;99.90;;;;;;5069989;28;20036;-69
2022/09/13 05:59:17;;;;;;;6.60;2.40;;;16.50;99.90;;;;;;5080249;28;20071;-69
2022/09/13 06:01:42;;;;;;;8.93;2.30;;;16.60;99.90;;;;;;5082200;28;20045;-70
2022/09/13 06:04:08;;;;;;;6.63;2.55;;;16.60;99.90;;;;;;5061273;28;20052;-69
2022/09/13 06:06:34;;;;;;;6.55;2.45;;;16.60;99.90;;;;;;5055025;28;20046;-68
2022/09/13 06:09:00;;;;;;;8.57;2.80;;;16.60;99.90;;;;;;5081013;28;20040;-69
2022/09/13 06:11:26;;;;;;;9.30;2.60;;;16.60;99.90;;;;;;5082928;28;20052;-68
2022/09/13 06:13:52;;;;;;;6.60;2.50;;;16.60;99.90;;;;;;5083733;28;20162;-69
2022/09/13 06:16:18;;;;;;;9.68;2.45;;;16.60;99.90;;;;;;5072222;28;20590;-69
2022/09/13 06:18:44;;;;;;;6.03;2.25;;;16.60;99.90;;;;;;5076730;28;20059;-69
2022/09/13 06:21:16;;;;;;;10.95;2.83;;;16.60;99.90;;;;;;5083720;28;20433;-69
2022/09/13 06:23:43;;;;;;;7.55;2.40;;;16.60;99.90;;;;;;5080472;28;20139;-68
2022/09/13 06:26:11;;;;;;;6.30;2.08;;;16.60;99.90;;;;;;5076927;28;20044;-70
2022/09/13 06:28:38;;;;;;;6.50;2.15;;;16.70;99.90;;;;;;5075428;28;20051;-69
2022/09/13 06:31:07;;;;;;;7.82;1.77;;;16.70;99.90;;;;;;5084996;28;20142;-69
2022/09/13 06:33:34;;;;;;;10.02;2.00;;;16.80;99.90;;;;;;5083236;28;20052;-69
2022/09/13 06:36:01;;;;;;;11.40;1.75;;;16.80;99.90;;;;;;5085874;28;20051;-69
2022/09/13 06:38:28;;;;;;;8.32;1.73;;;16.80;99.90;;;;;;5067346;28;20127;-70
2022/09/13 06:41:08;;;;;;;8.98;1.60;;;16.80;99.90;;;;;;5082069;28;20036;-69
2022/09/13 06:43:34;;;;;;;7.07;1.27;;;16.80;99.90;;;;;;5082590;28;20052;-69
2022/09/13 06:46:03;;;;;;;9.07;1.27;;;16.80;99.90;;;;;;5065769;28;20298;-69
2022/09/13 06:48:33;;;;;;;8.90;1.17;;;16.80;99.90;;;;;;5068512;28;20044;-70
2022/09/13 06:51:05;;;;;;;6.75;1.38;;;16.90;99.90;;;;;;5082847;28;20040;-69
2022/09/13 06:53:32;;;;;;;6.50;1.05;;;16.90;99.90;;;;;;5081399;28;20083;-69
2022/09/13 06:56:11;;;;;;;10.20;1.38;;;16.90;99.90;;;;;;5084543;28;20506;-69
2022/09/13 06:58:38;;;;;;;4.70;1.02;;;16.80;99.90;;;;;;5077410;28;20047;-69
2022/09/13 07:01:26;;;;;;;5.63;1.02;;;16.90;99.90;;;;;;5080349;28;20041;-69
2022/09/13 07:03:59;;;;;;;7.63;0.95;;;17.00;99.90;;;;;;5078652;28;20132;-70
2022/09/13 07:06:28;;;;;;;5.70;0.82;;;16.90;99.90;;;;;;5069923;28;20966;-70
2022/09/13 07:08:55;;;;;;;4.57;0.70;;;16.90;99.90;;;;;;5078782;28;20052;-69
2022/09/13 07:11:22;;;;;;;5.22;0.80;;;16.90;99.90;;;;;;5083115;28;20044;-69
2022/09/13 07:13:50;;;;;;;7.55;0.90;;;16.80;99.90;;;;;;5081843;28;20040;-68
2022/09/13 07:16:17;;;;;;;3.95;0.82;;;16.80;99.90;;;;;;5071848;28;20080;-70
2022/09/13 07:18:43;;;;;;;5.28;0.93;;;16.80;99.90;;;;;;5078583;28;20044;-69
2022/09/13 07:21:10;;;;;;;10.25;1.00;;;16.70;99.90;;;;;;5084677;28;20040;-69
2022/09/13 07:23:38;;;;;;;4.43;0.77;;;16.80;99.90;;;;;;5074021;28;20407;-69
2022/09/13 07:26:05;;;;;;;5.53;0.85;;;16.80;99.90;;;;;;5084555;28;20047;-69
2022/09/13 07:28:39;;;;;;;6.43;0.85;;;16.80;99.90;;;;;;5067344;28;20411;-69
2022/09/13 07:31:11;;;;;;;6.80;1.20;;;16.90;99.90;;;;;;5084432;28;20040;-69
2022/09/13 07:33:39;;;;;;;8.20;0.85;;;16.90;99.90;;;;;;5077730;28;20127;-69
2022/09/13 07:36:05;;;;;;;5.20;0.75;;;16.90;99.90;;;;;;5084579;28;20105;-69
2022/09/13 07:38:35;;;;;;;5.90;0.82;;;17.00;99.90;;;;;;5070029;28;20498;-69
2022/09/13 07:41:01;;;;;;;6.78;0.60;;;17.00;99.90;;;;;;5084333;28;20059;-69
2022/09/13 07:43:28;;;;;;;3.28;0.70;;;17.00;99.90;;;;;;5076544;28;20059;-70
2022/09/13 07:46:06;;;;;;;4.53;0.70;;;17.10;99.90;;;;;;5084336;28;20495;-69
2022/09/13 07:48:34;;;;;;;5.72;0.93;;;17.10;99.90;;;;;;5074718;28;20066;-70
2022/09/13 07:51:14;;;;;;;4.85;0.90;;;17.10;99.90;;;;;;5088568;28;20069;-70
2022/09/13 07:53:42;;;;;;;6.00;0.80;;;17.20;99.90;;;;;;5081158;28;20040;-70
2022/09/13 07:56:12;;;;;;;5.72;0.80;;;17.20;99.90;;;;;;5083205;28;20044;-70
2022/09/13 07:58:39;;;;;;;5.57;1.02;;;17.20;99.90;;;;;;5080254;28;20036;-70
2022/09/13 08:01:10;;;;;;;9.38;1.05;;;17.20;99.90;;;;;;5083608;28;20505;-70
2022/09/13 08:03:36;;;;;;;4.50;0.75;;;17.20;99.90;;;;;;5077040;28;20052;-70
2022/09/13 08:06:03;;;;;;;5.57;0.90;;;17.20;99.90;;;;;;5086738;28;20387;-70
2022/09/13 08:08:30;;;;;;;5.88;0.80;;;17.30;99.90;;;;;;5071595;28;20376;-70
2022/09/13 08:10:56;;;;;;;6.18;0.80;;;17.40;99.90;;;;;;5085583;28;20093;-70
2022/09/13 08:13:22;;;;;;;5.13;0.68;;;17.40;99.90;;;;;;5082190;28;20115;-70
2022/09/13 08:15:48;;;;;;;4.65;0.90;;;17.50;99.90;;;;;;5068089;28;20056;-70
2022/09/13 08:18:15;;;;;;;6.32;0.90;;;17.60;99.90;;;;;;5069886;28;20559;-71
2022/09/13 08:20:40;;;;;;;9.27;0.63;;;17.70;99.90;;;;;;5083935;28;20123;-70
2022/09/13 08:23:07;;;;;;;9.48;1.00;;;17.70;99.90;;;;;;5081978;28;20127;-71
2022/09/13 08:25:34;;;;;;;5.40;0.98;;;17.60;99.90;;;;;;5083636;28;20139;-70
2022/09/13 08:28:13;;;;;;;5.95;0.90;;;17.60;99.90;;;;;;5070285;28;20067;-70
2022/09/13 08:30:41;;;;;;;9.90;1.20;;;17.60;99.90;;;;;;5079813;28;20052;-70
2022/09/13 08:33:07;;;;;;;7.05;0.82;;;17.60;99.90;;;;;;5084320;28;20043;-69
2022/09/13 08:35:32;;;;;;;2.80;0.73;;;17.70;99.90;;;;;;5086351;28;20121;-70
2022/09/13 08:37:59;;;;;;;4.88;0.95;;;17.80;99.90;;;;;;5069887;28;20498;-71
2022/09/13 08:40:29;;;;;;;4.53;0.82;;;17.80;99.90;;;;;;5087765;28;20132;-71
2022/09/13 08:43:00;;;;;;;6.03;1.00;;;17.70;99.90;;;;;;5081220;28;20707;-71
2022/09/13 08:45:26;;;;;;;6.00;0.98;;;17.70;99.90;;;;;;5088865;28;20079;-70
2022/09/13 08:48:17;;;;;;;5.80;0.70;;;17.70;99.90;;;;;;5069916;28;20082;-70
2022/09/13 08:50:44;;;;;;;4.63;0.90;;;17.80;99.90;;;;;;5082756;28;20411;-71
2022/09/13 08:53:26;;;;;;;5.95;0.70;;;17.90;99.90;;;;;;5083389;28;20055;-70
2022/09/13 08:56:09;;;;;;;6.40;0.82;;;17.80;99.90;;;;;;5086478;28;20123;-70
2022/09/13 08:58:54;;;;;;;6.95;0.70;;;17.80;99.90;;;;;;5076404;28;20044;-70
2022/09/13 09:01:48;;;;;;;4.78;0.73;;;17.80;99.90;;;;;;5080911;28;20466;-70
2022/09/13 09:04:37;;;;;;;8.65;0.60;;;17.80;99.90;;;;;;5082942;28;20070;-70
2022/09/13 09:07:50;;;;;;;6.70;1.08;;;17.80;99.90;;;;;;5071226;28;20040;-68
2022/09/13 09:10:23;;;;;;;5.85;0.90;;;17.90;99.90;;;;;;5049554;28;20417;-70
2022/09/13 09:13:06;;;;;;;10.68;1.10;;;18.00;99.90;;;;;;5077552;28;20071;-71
2022/09/13 09:15:39;;;;;;;7.00;0.60;;;18.10;99.90;;;;;;5085187;28;20051;-71
2022/09/13 09:18:08;;;;;;;6.80;1.05;;;18.00;99.90;;;;;;5070298;28;20055;-71
2022/09/13 09:20:49;;;;;;;5.93;0.70;;;18.10;99.90;;;;;;5084142;28;20049;-71
2022/09/13 09:23:26;;;;;;;8.30;1.20;;;18.30;99.90;;;;;;5086849;28;20036;-71
2022/09/13 09:26:20;;;;;;;7.22;1.02;;;18.20;99.90;;;;;;5081629;28;20040;-70
2022/09/13 09:28:53;;;;;;;4.88;0.82;;;18.30;99.90;;;;;;5079319;28;20521;-70
2022/09/13 09:31:28;;;;;;;6.13;0.73;;;18.40;99.90;;;;;;5084459;28;20036;-71
2022/09/13 09:34:07;;;;;;;8.30;1.13;;;18.50;99.90;;;;;;5085946;28;20124;-70
2022/09/13 09:36:39;;;;;;;6.88;1.15;;;18.60;99.90;;;;;;5070163;28;20044;-70
2022/09/13 09:39:09;;;;;;;4.55;0.63;;;18.50;99.90;;;;;;5081902;28;20056;-70
2022/09/13 09:41:37;;;;;;;7.28;0.80;;;18.30;99.90;;;;;;5077882;28;20060;-71
2022/09/13 09:44:19;;;;;;;9.77;0.95;;;18.50;99.90;;;;;;5081795;28;20047;-70
2022/09/13 09:46:55;;;;;;;5.97;0.70;;;18.70;99.90;;;;;;5067759;28;20180;-70
2022/09/13 09:52:27;;;;;;;6.53;0.70;;;18.80;99.90;;;;;;5084424;28;20094;-71
2022/09/13 09:55:01;;;;;;;6.35;0.80;;;18.60;99.90;;;;;;5085111;28;20122;-71
2022/09/13 09:57:59;;;;;;;6.68;0.70;;;18.30;99.90;;;;;;5071057;28;20082;-70
2022/09/13 10:00:34;;;;;;;6.50;0.88;;;18.40;99.90;;;;;;5080740;28;20467;-70
2022/09/13 10:03:04;;;;;;;4.88;1.00;;;18.40;99.90;;;;;;5077079;28;20036;-69
2022/09/13 10:05:34;;;;;;;3.55;0.70;;;18.60;99.90;;;;;;5087648;28;20052;-70
2022/09/13 10:08:07;;;;;;;4.50;0.80;;;18.70;99.90;;;;;;5069222;28;20040;-70
2022/09/13 10:10:50;;;;;;;4.13;0.50;;;18.70;99.90;;;;;;5082690;28;20503;-70
2022/09/13 10:13:19;;;;;;;3.70;0.50;;;18.50;99.90;;;;;;5079538;28;20052;-70
2022/09/13 10:15:52;;;;;;;4.05;0.50;;;18.40;99.90;;;;;;5082898;28;20050;-70
2022/09/13 10:18:21;;;;;;;5.93;0.70;;;18.40;99.90;;;;;;5066760;28;20100;-70
2022/09/13 10:21:19;;;;;;;5.65;0.80;;;18.60;99.90;;;;;;5080195;28;20048;-71
2022/09/13 10:23:49;;;;;;;6.70;0.85;;;18.90;99.90;;;;;;5078923;28;20564;-70
2022/09/13 10:26:25;;;;;;;7.72;0.85;;;19.10;99.90;;;;;;5074346;28;20097;-71
2022/09/13 10:28:51;;;;;;;3.08;0.70;;;19.20;99.90;;;;;;5079328;28;20051;-71
2022/09/13 10:31:19;;;;;;;7.65;0.80;;;18.90;99.90;;;;;;5081688;28;20047;-70
2022/09/13 10:33:57;;;;;;;9.02;1.17;;;19.00;99.90;;;;;;5081110;28;20487;-70
2022/09/13 10:36:30;;;;;;;3.50;0.60;;;18.90;99.90;;;;;;5070548;28;20058;-71
2022/09/13 10:39:00;;;;;;;3.53;0.68;;;18.70;99.90;;;;;;5083524;28;20066;-69
2022/09/13 10:41:29;;;;;;;5.78;0.75;;;18.90;99.90;;;;;;5080494;28;20419;-71
2022/09/13 10:43:59;;;;;;;4.18;0.77;;;18.90;99.90;;;;;;5085247;28;20093;-69
2022/09/13 10:46:28;;;;;;;4.63;0.70;;;18.70;99.90;;;;;;5053801;28;20584;-71
2022/09/13 10:48:57;;;;;;;4.78;0.80;;;18.60;99.90;;;;;;5078663;28;20557;-69
2022/09/13 10:51:35;;;;;;;4.10;0.88;;;18.60;99.90;;;;;;5081834;28;20119;-70
2022/09/13 10:54:09;;;;;;;4.47;0.55;;;18.80;99.90;;;;;;5084792;28;20139;-69
2022/09/13 10:56:36;;;;;;;4.68;0.70;;;18.80;99.90;;;;;;5070013;28;20159;-71
2022/09/13 10:59:20;;;;;;;7.70;0.50;;;18.80;99.90;;;;;;5083082;28;20046;-70
2022/09/13 11:01:51;;;;;;;5.15;0.85;;;18.70;99.90;;;;;;5075921;28;20124;-70
2022/09/13 11:04:26;;;;;;;4.57;0.80;;;18.60;99.90;;;;;;5067888;28;20517;-70
2022/09/13 11:07:07;;;;;;;5.25;0.95;;;18.70;99.90;;;;;;5069290;28;20044;-70
2022/09/13 11:09:48;;;;;;;4.65;0.82;;;18.90;99.90;;;;;;5061833;28;20406;-70
2022/09/13 11:12:25;;;;;;;6.30;0.80;;;19.10;99.90;;;;;;5057573;28;20372;-69
2022/09/13 11:15:24;;;;;;;6.50;1.17;;;19.10;99.90;;;;;;5044549;28;20044;-70
2022/09/13 11:18:13;;;;;;;8.98;1.50;;;19.10;99.90;;;;;;5046115;28;20604;-71
2022/09/13 11:20:49;;;;;;;4.80;0.90;;;18.90;99.90;;;;;;5061859;28;20040;-71
2022/09/13 11:23:27;;;;;;;7.97;0.90;;;19.00;99.90;;;;;;5067048;28;20045;-70
2022/09/13 11:26:01;;;;;;;6.53;1.13;;;19.10;99.90;;;;;;5067151;28;20091;-70
2022/09/13 11:28:47;;;;;;;7.72;0.77;;;19.10;99.90;;;;;;5049509;28;20526;-70
2022/09/13 11:31:43;;;;;;;8.70;1.17;;;18.80;99.90;;;;;;5064935;28;20044;-70
2022/09/13 11:34:17;;;;;;;6.05;0.77;;;18.90;99.90;;;;;;5047870;28;20049;-70
2022/09/13 11:37:14;;;;;;;5.07;1.00;;;18.90;99.90;;;;;;5051699;28;20491;-70
2022/09/13 11:40:09;;;;;;;6.40;1.00;;;19.10;99.90;;;;;;5065518;28;20729;-70
2022/09/13 11:42:59;;;;;;;4.45;0.85;;;19.20;99.90;;;;;;5062629;28;20082;-69
2022/09/13 11:45:27;;;;;;;5.63;1.10;;;19.30;99.90;;;;;;5030642;28;20041;-71
2022/09/13 11:48:34;;;;;;;6.93;0.88;;;19.20;99.90;;;;;;5031669;28;20036;-69
2022/09/13 11:51:34;;;;;;;4.28;0.63;;;19.10;99.90;;;;;;5067190;28;20041;-70
2022/09/13 11:54:02;;;;;;;9.23;1.25;;;19.00;99.90;;;;;;5026907;28;20049;-70
2022/09/13 11:57:00;;;;;;;9.90;1.52;;;19.10;99.90;;;;;;5054927;28;20493;-71
2022/09/13 11:59:31;;;;;;;6.55;1.23;;;19.10;99.90;;;;;;5041899;28;20048;-70
2022/09/13 12:02:02;;;;;;;10.63;1.10;;;19.10;99.90;;;;;;5063507;28;20055;-70
2022/09/13 12:04:48;;;;;;;5.00;1.13;;;19.00;99.90;;;;;;5065720;28;20562;-69
2022/09/13 12:07:49;;;;;;;8.35;1.17;;;19.00;99.90;;;;;;5050451;28;20459;-69
2022/09/13 12:10:21;;;;;;;6.78;1.02;;;18.70;99.90;;;;;;5065124;28;20055;-69
2022/09/13 12:12:49;;;;;;;7.22;1.38;;;18.70;99.90;;;;;;5060454;28;20036;-70
2022/09/13 12:15:41;;;;;;;7.10;1.10;;;18.80;99.90;;;;;;5064277;28;20045;-69
2022/09/13 12:18:30;;;;;;;10.73;1.38;;;19.10;99.90;;;;;;5049022;28;20044;-69
2022/09/13 12:21:18;;;;;;;8.27;1.35;;;19.00;99.90;;;;;;5035523;28;20056;-69
2022/09/13 12:23:58;;;;;;;7.88;1.08;;;19.00;99.90;;;;;;5065247;28;20499;-69
2022/09/13 12:26:34;;;;;;;4.50;0.82;;;19.00;99.90;;;;;;5055309;28;20084;-69
2022/09/13 12:29:35;;;;;;;9.75;1.10;;;18.90;99.90;;;;;;5057923;28;20415;-69
2022/09/13 12:32:03;;;;;;;6.50;0.95;;;18.80;99.90;;;;;;5065040;28;20123;-70
2022/09/13 12:34:45;;;;;;;5.80;0.90;;;18.80;99.90;;;;;;5066231;28;20056;-70
2022/09/13 12:37:51;;;;;;;10.35;1.35;;;18.90;99.90;;;;;;5048373;28;20118;-70
2022/09/13 12:40:50;;;;;;;6.28;1.25;;;18.90;99.90;;;;;;5064963;28;20091;-70
2022/09/13 12:43:42;;;;;;;7.95;1.05;;;18.80;99.90;;;;;;5064081;28;20135;-69
2022/09/13 12:46:52;;;;;;;7.68;1.15;;;18.90;99.90;;;;;;5060605;28;20037;-71
2022/09/13 12:49:29;;;;;;;8.82;1.05;;;18.90;99.90;;;;;;5026303;28;20045;-69
2022/09/13 12:52:32;;;;;;;6.45;0.82;;;19.00;99.90;;;;;;5062959;28;20052;-69
2022/09/13 12:55:18;;;;;;;14.43;1.75;;;19.00;99.90;;;;;;5085679;28;20055;-69
2022/09/13 12:57:59;;;;;;;6.60;1.02;;;18.90;99.90;;;;;;5068827;28;20573;-70
2022/09/13 13:00:29;;;;;;;6.93;0.90;;;18.90;99.90;;;;;;5086761;28;20063;-69
2022/09/13 13:03:12;;;;;;;6.07;1.00;;;19.00;99.90;;;;;;5080856;28;20144;-70
2022/09/13 13:05:46;;;;;;;6.07;0.85;;;18.90;99.90;;;;;;5087164;28;20083;-70
2022/09/13 13:08:18;;;;;;;7.50;1.25;;;18.80;99.90;;;;;;5067607;28;20610;-69
2022/09/13 13:10:44;;;;;;;7.72;1.00;;;18.80;99.90;;;;;;5080074;28;20048;-69
2022/09/13 13:13:35;;;;;;;6.78;1.08;;;18.70;99.90;;;;;;5081422;28;20110;-69
2022/09/13 13:16:22;;;;;;;10.43;1.27;;;18.70;99.90;;;;;;5080093;28;20070;-70
2022/09/13 13:18:51;;;;;;;4.20;0.98;;;18.70;99.90;;;;;;5081432;28;20098;-69
2022/09/13 13:21:29;;;;;;;3.92;0.82;;;18.70;99.90;;;;;;5086144;28;20050;-70